createdAt,value
2022-11-27T18:20:23.101Z,102593.36
2022-11-27T18:21:29.149Z,102596.59
2022-11-27T18:22:37.269Z,102594.48
2022-11-27T18:24:14.498Z,102595.65
2022-11-27T18:25:08.499Z,102589.11
2022-11-27T18:26:18.260Z,102594.63
2022-11-27T18:27:32.157Z,102591.52
2022-11-27T18:28:37.943Z,102592.34
2022-11-27T18:29:45.126Z,102592.84
2022-11-27T18:30:49.535Z,102588.94
2022-11-27T18:31:53.728Z,102588.48
2022-11-27T18:32:59.890Z,102584.27
2022-11-27T18:34:04.272Z,102586.08
2022-11-27T18:35:08.368Z,102584.35
2022-11-27T18:36:16.786Z,102584.27
2022-11-27T18:37:23.759Z,102582.48
2022-11-27T18:38:33.657Z,102583.13
2022-11-27T18:39:40.418Z,102580.13
2022-11-27T18:40:46.321Z,102582.23
2022-11-27T18:41:52.255Z,102585.70
2022-11-27T18:42:57.340Z,102585.52
2022-11-27T18:44:05.114Z,102586.09
2022-11-27T18:45:31.582Z,102582.98
2022-11-27T18:46:39.226Z,102582.80
2022-11-27T18:47:44.122Z,102588.62
2022-11-27T18:48:54.776Z,102588.92
2022-11-27T18:50:01.732Z,102588.68
2022-11-27T18:51:09.260Z,102588.59
2022-11-27T18:52:14.166Z,102590.03
2022-11-27T18:53:20.759Z,102587.29
2022-11-27T18:54:25.750Z,102594.18
2022-11-27T18:55:35.129Z,102592.20
2022-11-27T18:56:41.021Z,102594.30
2022-11-27T18:57:46.793Z,102592.53
2022-11-27T18:58:54.519Z,102594.95
2022-11-27T18:59:58.942Z,102592.55
2022-11-27T19:01:11.669Z,102588.81
2022-11-27T19:02:15.928Z,102589.21
2022-11-27T19:03:21.893Z,102587.17
2022-11-27T19:04:25.937Z,102590.98
2022-11-27T19:05:30.289Z,102588.84
2022-11-27T19:06:38.679Z,102592.01
2022-11-27T19:07:42.774Z,102591.24
2022-11-27T19:08:48.145Z,102594.91
2022-11-27T19:09:51.820Z,102597.20
2022-11-27T19:11:00.481Z,102597.09
2022-11-27T19:12:05.761Z,102598.48
2022-11-27T19:13:10.774Z,102594.92
2022-11-27T19:14:15.189Z,102601.77
2022-11-27T19:15:21.113Z,102596.61
2022-11-27T19:16:35.696Z,102597.17
2022-11-27T19:17:40.698Z,102597.39
2022-11-27T19:18:47.082Z,102593.61
2022-11-27T19:19:55.551Z,102596.70
2022-11-27T19:21:11.053Z,102597.04
2022-11-27T19:22:20.281Z,102597.58
2022-11-27T19:23:27.247Z,102597.85
2022-11-27T19:24:32.436Z,102595.50
2022-11-27T19:25:41.755Z,102594.54
2022-11-27T19:26:45.914Z,102596.99
2022-11-27T19:27:52.325Z,102589.05
2022-11-27T19:29:01.148Z,102588.73
2022-11-27T19:30:06.153Z,102589.20
2022-11-27T19:31:13.629Z,102587.94
2022-11-27T19:32:17.467Z,102586.90
2022-11-27T19:33:24.032Z,102586.33
2022-11-27T19:34:28.859Z,102586.18
2022-11-27T19:35:35.790Z,102585.23
2022-11-27T19:36:39.928Z,102588.34
2022-11-27T19:37:46.403Z,102586.67
2022-11-27T19:38:56.043Z,102586.14
2022-11-27T19:40:00.388Z,102584.80
2022-11-27T19:41:08.577Z,102584.83
2022-11-27T19:42:13.092Z,102584.52
2022-11-27T19:43:18.664Z,102582.98
2022-11-27T19:44:24.379Z,102581.34
2022-11-27T19:45:29.874Z,102578.01
2022-11-27T19:46:36.836Z,102578.93
2022-11-27T19:47:41.206Z,102581.81
2022-11-27T19:48:45.813Z,102579.66
2022-11-27T19:49:50.592Z,102579.19
2022-11-27T19:51:01.868Z,102577.68
2022-11-27T19:52:06.664Z,102577.54
2022-11-27T19:53:12.714Z,102574.34
2022-11-27T19:54:21.089Z,102574.99
2022-11-27T19:55:26.911Z,102575.65
2022-11-27T19:56:35.322Z,102573.48
2022-11-27T19:57:39.470Z,102573.05
2022-11-27T19:58:44.930Z,102571.69
2022-11-27T19:59:50.772Z,102570.01
2022-11-27T20:01:24.760Z,102567.82
2022-11-27T20:02:32.853Z,102566.20
2022-11-27T20:03:38.765Z,102567.55
2022-11-27T20:04:43.145Z,102567.52
2022-11-27T20:05:47.585Z,102570.90
2022-11-27T20:06:53.667Z,102569.77
2022-11-27T20:07:59.910Z,102570.62
2022-11-27T20:09:09.292Z,102570.64
2022-11-27T20:10:16.977Z,102570.68
2022-11-27T20:11:32.828Z,102572.37
2022-11-27T20:12:44.790Z,102569.59
2022-11-27T20:13:50.896Z,102568.94
2022-11-27T20:14:55.078Z,102570.03
2022-11-27T20:15:59.584Z,102565.98
2022-11-27T20:17:06.140Z,102565.63
2022-11-27T20:18:10.191Z,102559.05
2022-11-27T20:19:18.280Z,102562.19
2022-11-27T20:20:22.823Z,102559.42
2022-11-27T20:21:32.226Z,102561.03
2022-11-27T20:22:37.756Z,102559.85
2022-11-27T20:23:43.779Z,102561.02
2022-11-27T20:25:17.370Z,102563.27
2022-11-27T20:26:21.106Z,102561.13
2022-11-27T20:27:27.057Z,102562.30
2022-11-27T20:28:31.594Z,102563.50
2022-11-27T20:29:36.801Z,102562.98
2022-11-27T20:30:44.932Z,102568.06
2022-11-27T20:31:50.483Z,102565.70
2022-11-27T20:32:59.366Z,102562.83
2022-11-27T20:34:09.909Z,102563.02
2022-11-27T20:35:14.271Z,102562.23
2022-11-27T20:36:23.491Z,102564.28
2022-11-27T20:37:28.557Z,102564.34
2022-11-27T20:38:32.317Z,102565.94
2022-11-27T20:39:37.076Z,102568.46
2022-11-27T20:40:42.049Z,102570.91
2022-11-27T20:41:46.571Z,102566.42
2022-11-27T20:42:52.389Z,102563.77
2022-11-27T20:43:58.989Z,102564.69
2022-11-27T20:45:05.480Z,102564.14
2022-11-27T20:46:12.322Z,102561.48
2022-11-27T20:47:16.515Z,102564.04
2022-11-27T20:48:20.961Z,102562.02
2022-11-27T20:49:26.280Z,102566.98
2022-11-27T20:50:30.236Z,102565.09
2022-11-27T20:51:36.589Z,102565.23
2022-11-27T20:52:45.632Z,102570.34
2022-11-27T20:53:50.080Z,102568.42
2022-11-27T20:54:55.420Z,102564.70
2022-11-27T20:56:09.653Z,102563.91
2022-11-27T20:57:18.778Z,102565.02
2022-11-27T20:58:23.800Z,102563.22
2022-11-27T20:59:29.191Z,102564.08
2022-11-27T21:00:40.742Z,102561.96
2022-11-27T21:01:44.946Z,102562.01
2022-11-27T21:02:50.988Z,102559.84
2022-11-27T21:03:57.470Z,102558.13
2022-11-27T21:05:01.727Z,102562.10
2022-11-27T21:06:06.018Z,102562.76
2022-11-27T21:07:11.111Z,102563.02
2022-11-27T21:08:15.021Z,102562.17
2022-11-27T21:09:21.107Z,102562.84
2022-11-27T21:10:27.917Z,102560.22
2022-11-27T21:11:33.240Z,102559.61
2022-11-27T21:12:38.538Z,102557.82
2022-11-27T21:13:43.207Z,102556.30
2022-11-27T21:14:46.835Z,102549.98
2022-11-27T21:15:50.261Z,102554.54
2022-11-27T21:17:04.516Z,102555.08
2022-11-27T21:18:10.704Z,102553.61
2022-11-27T21:19:22.718Z,102550.79
2022-11-27T21:20:30.295Z,102553.81
2022-11-27T21:21:35.404Z,102554.23
2022-11-27T21:22:43.143Z,102550.79
2022-11-27T21:23:50.305Z,102556.85
2022-11-27T21:24:57.419Z,102553.23
2022-11-27T21:26:06.355Z,102553.44
2022-11-27T21:27:12.814Z,102548.84
2022-11-27T21:28:18.828Z,102551.73
2022-11-27T21:29:25.690Z,102551.81
2022-11-27T21:30:30.632Z,102551.59
2022-11-27T21:31:38.873Z,102546.15
2022-11-27T21:32:45.374Z,102541.94
2022-11-27T21:34:00.061Z,102539.10
2022-11-27T21:35:04.635Z,102541.52
2022-11-27T21:36:10.713Z,102541.02
2022-11-27T21:37:14.928Z,102536.77
2022-11-27T21:38:24.264Z,102538.88
2022-11-27T21:39:30.868Z,102536.53
2022-11-27T21:40:38.806Z,102540.64
2022-11-27T21:41:43.012Z,102538.88
2022-11-27T21:42:50.257Z,102537.14
2022-11-27T21:44:02.196Z,102535.48
2022-11-27T21:45:06.759Z,102539.59
2022-11-27T21:46:18.397Z,102535.09
2022-11-27T21:47:22.803Z,102536.41
2022-11-27T21:48:26.503Z,102534.99
2022-11-27T21:49:30.278Z,102534.68
2022-11-27T21:50:36.532Z,102537.55
2022-11-27T21:51:41.477Z,102538.42
2022-11-27T21:52:47.253Z,102537.80
2022-11-27T21:53:52.837Z,102538.30
2022-11-27T21:54:58.472Z,102543.89
2022-11-27T21:56:07.194Z,102544.05
2022-11-27T21:57:10.938Z,102543.58
2022-11-27T21:58:16.498Z,102541.59
2022-11-27T21:59:20.423Z,102542.50
2022-11-27T22:00:24.576Z,102543.39
2022-11-27T22:01:29.967Z,102544.31
2022-11-27T22:02:33.956Z,102542.59
2022-11-27T22:03:42.560Z,102546.29
2022-11-27T22:04:47.328Z,102546.12
2022-11-27T22:05:59.122Z,102545.89
2022-11-27T22:07:02.438Z,102545.77
2022-11-27T22:08:05.989Z,102544.74
2022-11-27T22:09:15.064Z,102546.35
2022-11-27T22:10:20.135Z,102541.45
2022-11-27T22:11:32.631Z,102544.44
2022-11-27T22:12:36.617Z,102541.52
2022-11-27T22:13:44.945Z,102539.81
2022-11-27T22:14:50.512Z,102541.98
2022-11-27T22:15:56.175Z,102540.73
2022-11-27T22:17:00.602Z,102538.88
2022-11-27T22:18:06.061Z,102540.06
2022-11-27T22:19:10.582Z,102540.90
2022-11-27T22:20:16.093Z,102537.98
2022-11-27T22:21:20.525Z,102538.73
2022-11-27T22:22:24.322Z,102542.34
2022-11-27T22:23:30.263Z,102542.02
2022-11-27T22:24:34.136Z,102545.48
2022-11-27T22:25:38.417Z,102542.19
2022-11-27T22:26:42.497Z,102542.86
2022-11-27T22:27:46.369Z,102541.67
2022-11-27T22:28:50.910Z,102539.26
2022-11-27T22:29:56.623Z,102539.64
2022-11-27T22:31:00.316Z,102536.20
2022-11-27T22:32:06.280Z,102536.00
2022-11-27T22:33:10.121Z,102537.51
2022-11-27T22:34:17.408Z,102537.53
2022-11-27T22:35:22.637Z,102537.35
2022-11-27T22:36:28.297Z,102537.22
2022-11-27T22:37:31.832Z,102536.16
2022-11-27T22:38:38.066Z,102537.95
2022-11-27T22:39:43.887Z,102538.06
2022-11-27T22:40:50.192Z,102534.34
2022-11-27T22:41:54.496Z,102536.84
2022-11-27T22:43:00.321Z,102537.19
2022-11-27T22:44:09.164Z,102532.48
2022-11-27T22:45:12.939Z,102532.24
2022-11-27T22:46:21.165Z,102532.37
2022-11-27T22:47:24.760Z,102532.59
2022-11-27T22:48:29.615Z,102530.64
2022-11-27T22:49:34.767Z,102530.09
2022-11-27T22:50:39.301Z,102526.96
2022-11-27T22:51:44.540Z,102526.20
2022-11-27T22:52:48.708Z,102523.77
2022-11-27T22:53:56.950Z,102517.33
2022-11-27T22:55:00.808Z,102524.58
2022-11-27T22:56:07.968Z,102523.42
2022-11-27T22:57:11.609Z,102517.33
2022-11-27T22:58:15.297Z,102517.30
2022-11-27T22:59:36.323Z,102521.23
2022-11-27T23:00:42.318Z,102517.51
2022-11-27T23:01:47.304Z,102520.95
2022-11-27T23:02:51.382Z,102519.81
2022-11-27T23:03:59.115Z,102520.92
2022-11-27T23:05:04.096Z,102520.75
2022-11-27T23:06:12.008Z,102521.90
2022-11-27T23:07:17.798Z,102521.16
2022-11-27T23:08:25.072Z,102523.17
2022-11-27T23:09:29.374Z,102521.23
2022-11-27T23:10:33.386Z,102522.30
2022-11-27T23:11:37.476Z,102520.30
2022-11-27T23:12:41.511Z,102519.70
2022-11-27T23:13:49.824Z,102520.98
2022-11-27T23:14:55.334Z,102518.92
2022-11-27T23:16:02.075Z,102516.61
2022-11-27T23:17:06.374Z,102514.73
2022-11-27T23:18:11.065Z,102512.94
2022-11-27T23:19:16.517Z,102509.64
2022-11-27T23:20:20.364Z,102507.23
2022-11-27T23:21:27.072Z,102508.41
2022-11-27T23:22:31.114Z,102505.23
2022-11-27T23:23:35.279Z,102502.98
2022-11-27T23:24:40.336Z,102505.82
2022-11-27T23:25:44.111Z,102504.48
2022-11-27T23:26:48.300Z,102503.63
2022-11-27T23:27:51.913Z,102504.60
2022-11-27T23:28:56.698Z,102503.59
2022-11-27T23:30:00.481Z,102504.60
2022-11-27T23:31:28.848Z,102504.95
2022-11-27T23:32:34.228Z,102509.91
2022-11-27T23:33:41.016Z,102510.93
2022-11-27T23:34:44.810Z,102512.34
2022-11-27T23:35:48.537Z,102515.28
2022-11-27T23:36:54.396Z,102514.14
2022-11-27T23:37:58.527Z,102512.30
2022-11-27T23:39:05.554Z,102516.20
2022-11-27T23:40:09.658Z,102516.24
2022-11-27T23:41:15.800Z,102517.55
2022-11-27T23:42:19.503Z,102517.34
2022-11-27T23:43:24.116Z,102513.60
2022-11-27T23:44:27.808Z,102513.89
2022-11-27T23:45:31.533Z,102514.42
2022-11-27T23:46:35.638Z,102511.46
2022-11-27T23:47:41.244Z,102509.41
2022-11-27T23:48:45.981Z,102511.39
2022-11-27T23:49:50.981Z,102513.95
2022-11-27T23:50:54.943Z,102514.02
2022-11-27T23:51:59.621Z,102515.88
2022-11-27T23:53:05.074Z,102517.71
2022-11-27T23:54:10.287Z,102517.52
2022-11-27T23:55:15.650Z,102515.84
2022-11-27T23:56:25.492Z,102519.63
2022-11-27T23:57:29.491Z,102522.56
2022-11-27T23:58:33.285Z,102518.58
2022-11-27T23:59:38.444Z,102520.42
